createdAt,value
2022-10-11T00:01:53.076Z,4.35
2022-10-11T00:04:19.738Z,4.55
2022-10-11T00:06:47.283Z,4.70
2022-10-11T00:09:14.754Z,4.47
2022-10-11T00:11:41.826Z,4.13
2022-10-11T00:14:08.471Z,4.40
2022-10-11T00:16:35.151Z,4.07
2022-10-11T00:19:01.778Z,5.05
2022-10-11T00:21:28.436Z,4.40
2022-10-11T00:23:55.039Z,4.35
2022-10-11T00:26:21.690Z,5.10
2022-10-11T00:28:51.968Z,5.00
2022-10-11T00:31:18.641Z,4.30
2022-10-11T00:33:45.407Z,4.57
2022-10-11T00:36:14.650Z,4.43
2022-10-11T00:38:41.366Z,4.82
2022-10-11T00:41:08.015Z,4.78
2022-10-11T00:43:34.978Z,4.50
2022-10-11T00:46:04.412Z,4.75
2022-10-11T00:48:48.803Z,4.43
2022-10-11T00:51:19.925Z,5.18
2022-10-11T00:53:48.429Z,5.18
2022-10-11T00:56:24.154Z,5.03
2022-10-11T00:58:50.926Z,5.32
2022-10-11T01:01:17.853Z,4.95
2022-10-11T01:03:44.610Z,5.68
2022-10-11T01:06:11.258Z,4.82
2022-10-11T01:08:38.849Z,5.80
2022-10-11T01:11:05.914Z,5.05
2022-10-11T01:13:38.638Z,4.93
2022-10-11T01:16:26.970Z,5.07
2022-10-11T01:19:20.802Z,4.68
2022-10-11T01:22:18.380Z,5.15
2022-10-11T01:25:21.794Z,4.45
2022-10-11T01:28:16.262Z,4.85
2022-10-11T01:30:43.359Z,4.50
2022-10-11T01:33:22.040Z,4.78
2022-10-11T01:36:12.391Z,4.70
2022-10-11T01:38:45.967Z,4.72
2022-10-11T01:41:16.908Z,4.32
2022-10-11T01:43:44.190Z,4.85
2022-10-11T01:46:11.252Z,4.65
2022-10-11T01:48:55.255Z,5.05
2022-10-11T01:51:25.767Z,5.05
2022-10-11T01:53:58.344Z,5.05
2022-10-11T01:56:39.456Z,3.92
2022-10-11T01:59:43.452Z,5.57
2022-10-11T02:02:10.017Z,4.18
2022-10-11T02:04:45.402Z,5.25
2022-10-11T02:07:18.003Z,6.20
2022-10-11T02:09:55.226Z,5.38
2022-10-11T02:12:41.349Z,5.75
2022-10-11T02:15:09.728Z,5.70
2022-10-11T02:17:43.362Z,5.97
2022-10-11T02:20:14.624Z,5.35
2022-10-11T02:22:43.428Z,5.68
2022-10-11T02:25:13.868Z,4.93
2022-10-11T02:27:41.200Z,5.30
2022-10-11T02:30:09.564Z,6.38
2022-10-11T02:32:37.031Z,5.68
2022-10-11T02:35:04.023Z,4.95
2022-10-11T02:37:36.593Z,5.25
2022-10-11T02:40:29.475Z,5.45
2022-10-11T02:43:02.545Z,4.75
2022-10-11T02:45:35.992Z,5.00
2022-10-11T02:48:03.636Z,5.35
2022-10-11T02:50:30.509Z,5.53
2022-10-11T02:52:57.144Z,6.32
2022-10-11T02:55:26.644Z,5.97
2022-10-11T02:57:53.269Z,6.72
2022-10-11T03:00:19.821Z,5.38
2022-10-11T03:02:46.462Z,5.68
2022-10-11T03:05:13.269Z,5.50
2022-10-11T03:07:39.852Z,6.10
2022-10-11T03:10:09.593Z,5.78
2022-10-11T03:12:36.388Z,6.10
2022-10-11T03:15:03.575Z,6.05
2022-10-11T03:17:37.685Z,5.68
2022-10-11T03:20:05.753Z,6.25
2022-10-11T03:22:35.213Z,5.88
2022-10-11T03:25:04.443Z,6.43
2022-10-11T03:27:32.699Z,6.10
2022-10-11T03:29:59.564Z,6.25
2022-10-11T03:32:26.331Z,5.90
2022-10-11T03:34:52.973Z,6.00
2022-10-11T03:37:19.593Z,5.93
2022-10-11T03:39:46.167Z,6.60
2022-10-11T03:42:13.644Z,5.43
2022-10-11T03:44:41.620Z,5.97
2022-10-11T03:47:08.457Z,6.43
2022-10-11T03:49:37.659Z,5.93
2022-10-11T03:52:10.915Z,5.88
2022-10-11T03:54:37.503Z,5.95
2022-10-11T03:57:04.237Z,5.38
2022-10-11T03:59:30.871Z,5.75
2022-10-11T04:01:57.501Z,6.47
2022-10-11T04:04:24.147Z,6.22
2022-10-11T04:06:50.763Z,5.32
2022-10-11T04:09:17.368Z,5.35
2022-10-11T04:11:43.960Z,6.35
2022-10-11T04:14:10.566Z,5.90
2022-10-11T04:16:38.810Z,5.93
2022-10-11T04:19:05.916Z,5.75
2022-10-11T04:21:32.597Z,6.05
2022-10-11T04:23:59.499Z,5.70
2022-10-11T04:26:26.316Z,7.18
2022-10-11T04:28:53.229Z,5.72
2022-10-11T04:31:19.851Z,6.25
2022-10-11T04:33:46.479Z,6.53
2022-10-11T04:36:13.058Z,6.18
2022-10-11T04:38:39.729Z,6.00
2022-10-11T04:41:10.945Z,6.53
2022-10-11T04:43:37.765Z,6.50
2022-10-11T04:46:05.385Z,5.78
2022-10-11T04:48:32.243Z,7.30
2022-10-11T04:50:58.864Z,6.50
2022-10-11T04:53:25.508Z,6.40
2022-10-11T04:56:01.274Z,6.57
2022-10-11T04:58:29.206Z,6.25
2022-10-11T05:00:56.096Z,7.95
2022-10-11T05:03:22.984Z,7.45
2022-10-11T05:05:49.819Z,7.25
2022-10-11T05:08:16.511Z,7.57
2022-10-11T05:10:43.189Z,8.13
2022-10-11T05:13:09.931Z,7.38
2022-10-11T05:15:36.565Z,8.13
2022-10-11T05:18:03.485Z,8.23
2022-10-11T05:20:30.163Z,7.78
2022-10-11T05:22:56.798Z,8.07
2022-10-11T05:25:23.443Z,7.75
2022-10-11T05:27:50.090Z,7.03
2022-10-11T05:30:16.685Z,6.93
2022-10-11T05:32:43.382Z,7.78
2022-10-11T05:35:10.366Z,7.90
2022-10-11T05:37:37.091Z,7.32
2022-10-11T05:40:04.342Z,8.02
2022-10-11T05:42:30.954Z,8.00
2022-10-11T05:44:57.588Z,7.78
2022-10-11T05:47:24.288Z,6.93
2022-10-11T05:49:50.998Z,10.07
2022-10-11T05:52:20.588Z,11.05
2022-10-11T05:54:50.204Z,7.97
2022-10-11T05:57:16.843Z,8.63
2022-10-11T05:59:43.496Z,8.40
2022-10-11T06:02:13.270Z,8.77
2022-10-11T06:04:40.139Z,10.68
2022-10-11T06:07:06.963Z,8.63
2022-10-11T06:09:37.020Z,9.32
2022-10-11T06:12:03.820Z,9.48
2022-10-11T06:14:30.407Z,9.20
2022-10-11T06:16:57.047Z,9.23
2022-10-11T06:19:23.763Z,9.75
2022-10-11T06:21:50.469Z,9.55
2022-10-11T06:24:17.283Z,9.90
2022-10-11T06:26:43.894Z,10.43
2022-10-11T06:29:10.784Z,11.25
2022-10-11T06:31:37.397Z,10.63
2022-10-11T06:34:04.972Z,10.80
2022-10-11T06:36:31.590Z,11.20
2022-10-11T06:39:01.099Z,10.23
2022-10-11T06:41:29.656Z,10.07
2022-10-11T06:43:57.253Z,11.25
2022-10-11T06:46:25.493Z,10.10
2022-10-11T06:48:52.594Z,10.45
2022-10-11T06:51:21.665Z,10.38
2022-10-11T06:53:52.208Z,10.73
2022-10-11T06:56:19.832Z,11.50
2022-10-11T06:58:46.603Z,11.27
2022-10-11T07:01:16.821Z,11.88
2022-10-11T07:03:43.550Z,11.60
2022-10-11T07:06:16.689Z,13.82
2022-10-11T07:08:43.626Z,13.55
2022-10-11T07:11:12.331Z,12.48
2022-10-11T07:13:39.612Z,13.23
2022-10-11T07:16:09.201Z,13.35
2022-10-11T07:18:36.188Z,12.63
2022-10-11T07:21:08.004Z,13.10
2022-10-11T07:23:35.004Z,12.55
2022-10-11T07:26:01.985Z,15.05
2022-10-11T07:28:30.498Z,14.95
2022-10-11T07:30:58.185Z,14.23
2022-10-11T07:33:25.057Z,13.90
2022-10-11T07:35:51.702Z,14.90
2022-10-11T07:38:18.399Z,15.02
2022-10-11T07:40:46.203Z,14.43
2022-10-11T07:43:13.480Z,15.57
2022-10-11T07:45:41.623Z,15.20
2022-10-11T07:48:08.735Z,15.60
2022-10-11T07:50:35.472Z,14.88
2022-10-11T07:53:02.184Z,15.65
2022-10-11T07:55:30.076Z,16.88
2022-10-11T07:57:57.403Z,18.75
2022-10-11T08:00:24.291Z,17.75
2022-10-11T08:02:52.241Z,19.20
2022-10-11T08:05:18.917Z,18.48
2022-10-11T08:07:45.878Z,19.17
2022-10-11T08:10:14.207Z,18.63
2022-10-11T08:12:41.991Z,20.67
2022-10-11T08:15:09.091Z,20.35
2022-10-11T08:17:36.793Z,21.20
2022-10-11T08:20:03.815Z,21.67
2022-10-11T08:22:31.034Z,21.15
2022-10-11T08:24:57.705Z,22.10
2022-10-11T08:27:24.411Z,20.55
2022-10-11T08:29:51.314Z,23.98
2022-10-11T08:32:18.047Z,22.60
2022-10-11T08:34:47.504Z,22.02
2022-10-11T08:37:14.263Z,20.85
2022-10-11T08:39:41.190Z,19.88
2022-10-11T08:42:31.475Z,20.20
2022-10-11T08:45:17.465Z,17.90
2022-10-11T08:47:45.269Z,18.17
2022-10-11T08:50:24.795Z,17.75
2022-10-11T08:53:04.880Z,15.93
2022-10-11T08:55:43.929Z,16.83
2022-10-11T08:58:16.266Z,15.25
2022-10-11T09:00:47.004Z,12.90
2022-10-11T09:03:23.709Z,12.30
2022-10-11T09:06:25.835Z,11.48
2022-10-11T09:09:22.814Z,10.07
2022-10-11T09:12:04.754Z,10.98
2022-10-11T09:14:38.127Z,11.48
2022-10-11T09:17:10.744Z,11.98
2022-10-11T09:20:02.319Z,10.85
2022-10-11T09:22:44.078Z,10.52
2022-10-11T09:25:25.845Z,9.15
2022-10-11T09:28:33.940Z,9.80
2022-10-11T09:31:00.729Z,10.70
2022-10-11T09:33:34.545Z,11.60
2022-10-11T09:36:04.565Z,10.13
2022-10-11T09:38:41.569Z,9.60
2022-10-11T09:41:30.191Z,9.40
2022-10-11T09:43:56.942Z,10.13
2022-10-11T09:46:24.973Z,8.55
2022-10-11T09:48:52.124Z,7.30
2022-10-11T09:51:22.245Z,6.68
2022-10-11T09:53:52.329Z,6.80
2022-10-11T09:56:19.011Z,8.23
2022-10-11T09:58:45.690Z,7.72
2022-10-11T10:01:22.429Z,6.85
2022-10-11T10:04:05.788Z,5.50
2022-10-11T10:06:32.622Z,3.60
2022-10-11T10:09:26.542Z,4.60
2022-10-11T10:11:54.961Z,4.47
2022-10-11T10:14:25.776Z,3.90
2022-10-11T10:17:02.080Z,2.33
2022-10-11T10:19:28.913Z,3.17
2022-10-11T10:21:56.339Z,3.35
2022-10-11T10:24:40.116Z,4.07
2022-10-11T10:27:22.277Z,4.13
2022-10-11T10:30:10.139Z,3.95
2022-10-11T10:32:51.753Z,3.03
2022-10-11T10:35:32.924Z,2.38
2022-10-11T10:38:09.328Z,3.40
2022-10-11T10:40:56.201Z,1.38
2022-10-11T10:43:25.089Z,1.88
2022-10-11T10:46:17.053Z,1.52
2022-10-11T10:52:05.989Z,1.95
2022-10-11T10:54:56.810Z,1.90
2022-10-11T10:57:33.316Z,1.70
2022-10-11T11:00:16.685Z,1.80
2022-10-11T11:03:01.030Z,2.22
2022-10-11T11:05:30.630Z,1.90
2022-10-11T11:08:00.568Z,1.50
2022-10-11T11:10:37.431Z,1.60
2022-10-11T11:13:19.447Z,1.60
2022-10-11T11:16:11.778Z,1.63
2022-10-11T11:18:47.142Z,1.38
2022-10-11T11:21:21.513Z,1.77
2022-10-11T11:24:08.434Z,1.80
2022-10-11T11:26:44.559Z,1.67
2022-10-11T11:29:17.394Z,1.98
2022-10-11T11:32:15.286Z,1.67
2022-10-11T11:34:45.636Z,1.45
2022-10-11T11:37:24.901Z,1.45
2022-10-11T11:39:56.067Z,1.70
2022-10-11T11:42:34.165Z,1.63
2022-10-11T11:45:06.162Z,1.50
2022-10-11T11:47:37.186Z,1.30
2022-10-11T11:50:15.221Z,1.80
2022-10-11T11:52:44.825Z,1.40
2022-10-11T11:55:25.447Z,1.58
2022-10-11T11:58:06.906Z,1.58
2022-10-11T12:00:49.312Z,1.60
2022-10-11T12:03:25.324Z,1.60
2022-10-11T12:06:14.001Z,1.83
2022-10-11T12:08:47.559Z,1.30
2022-10-11T12:11:35.390Z,1.33
2022-10-11T12:14:16.594Z,1.40
2022-10-11T12:17:12.947Z,1.90
2022-10-11T12:19:42.713Z,1.40
2022-10-11T12:22:27.721Z,1.48
2022-10-11T12:25:21.243Z,1.58
2022-10-11T12:27:50.644Z,1.42
2022-10-11T12:30:48.063Z,1.45
2022-10-11T12:33:16.875Z,1.60
2022-10-11T12:35:52.677Z,1.60
2022-10-11T12:38:37.721Z,1.40
2022-10-11T12:41:10.266Z,1.58
2022-10-11T12:44:17.262Z,2.70
2022-10-11T12:46:57.527Z,1.80
2022-10-11T12:49:31.143Z,1.80
2022-10-11T12:52:06.971Z,1.45
2022-10-11T12:54:45.733Z,1.63
2022-10-11T12:57:46.626Z,1.23
2022-10-11T13:00:20.739Z,1.60
2022-10-11T13:02:48.615Z,1.52
2022-10-11T13:05:33.221Z,1.60
2022-10-11T13:08:03.633Z,2.03
2022-10-11T13:11:03.496Z,1.30
2022-10-11T13:14:00.452Z,1.38
2022-10-11T13:16:30.105Z,1.30
2022-10-11T13:18:59.284Z,1.60
2022-10-11T13:21:30.720Z,1.33
2022-10-11T13:24:10.619Z,1.52
2022-10-11T13:26:38.024Z,1.40
2022-10-11T13:29:31.796Z,1.58
2022-10-11T13:31:58.743Z,1.58
2022-10-11T13:34:25.435Z,1.27
2022-10-11T13:36:56.980Z,1.58
2022-10-11T13:39:32.831Z,1.25
2022-10-11T13:42:00.308Z,1.42
2022-10-11T13:44:27.320Z,1.35
2022-10-11T13:46:54.147Z,1.60
2022-10-11T13:49:37.803Z,1.40
2022-10-11T13:52:17.295Z,1.27
2022-10-11T13:54:56.023Z,1.38
2022-10-11T13:57:31.376Z,1.23
2022-10-11T13:59:58.056Z,1.73
2022-10-11T14:02:26.076Z,1.38
2022-10-11T14:04:53.579Z,1.77
2022-10-11T14:07:24.989Z,1.25
2022-10-11T14:09:52.044Z,1.30
2022-10-11T14:12:40.384Z,1.52
2022-10-11T14:15:24.776Z,1.30
2022-10-11T14:17:51.574Z,1.10
2022-10-11T14:20:22.923Z,1.40
2022-10-11T14:22:53.683Z,1.08
2022-10-11T14:25:21.489Z,1.60
2022-10-11T14:27:48.880Z,2.17
2022-10-11T14:30:27.352Z,1.10
2022-10-11T14:32:57.120Z,1.63
2022-10-11T14:35:30.006Z,1.42
2022-10-11T14:37:56.631Z,1.30
2022-10-11T14:40:29.566Z,1.00
2022-10-11T14:42:56.945Z,1.20
2022-10-11T14:45:23.909Z,1.00
2022-10-11T14:47:53.752Z,1.30
2022-10-11T14:50:26.612Z,1.02
2022-10-11T14:52:53.858Z,2.00
2022-10-11T14:55:20.585Z,1.35
2022-10-11T14:57:47.362Z,1.27
2022-10-11T15:00:26.231Z,1.10
2022-10-11T15:02:54.855Z,1.30
2022-10-11T15:05:26.165Z,1.67
2022-10-11T15:07:54.596Z,1.00
2022-10-11T15:10:25.536Z,1.42
2022-10-11T15:12:53.877Z,1.20
2022-10-11T15:15:23.270Z,1.33
2022-10-11T15:17:53.852Z,1.55
2022-10-11T15:20:27.404Z,1.38
2022-10-11T15:22:55.572Z,1.55
2022-10-11T15:25:25.475Z,1.10
2022-10-11T15:27:52.262Z,1.52
2022-10-11T15:30:24.240Z,1.13
2022-10-11T15:32:52.674Z,0.90
2022-10-11T15:35:21.065Z,1.17
2022-10-11T15:37:48.158Z,1.08
2022-10-11T15:40:21.996Z,1.23
2022-10-11T15:42:52.741Z,1.00
2022-10-11T15:45:21.010Z,1.55
2022-10-11T15:47:48.244Z,1.35
2022-10-11T15:50:37.377Z,0.90
2022-10-11T15:53:04.784Z,1.00
2022-10-11T15:55:35.202Z,1.23
2022-10-11T15:58:02.963Z,1.50
2022-10-11T16:00:30.395Z,1.90
2022-10-11T16:02:58.852Z,1.33
2022-10-11T16:05:27.987Z,1.23
2022-10-11T16:08:02.873Z,1.10
2022-10-11T16:10:30.475Z,1.30
2022-10-11T16:12:57.406Z,1.70
2022-10-11T16:15:24.612Z,1.55
2022-10-11T16:17:54.345Z,1.63
2022-10-11T16:23:06.045Z,1.65
2022-10-11T16:28:14.852Z,1.42
2022-10-11T16:30:45.660Z,1.58
2022-10-11T16:33:12.390Z,1.10
2022-10-11T16:35:44.284Z,1.80
2022-10-11T16:38:13.589Z,1.70
2022-10-11T16:40:42.056Z,1.23
2022-10-11T16:43:09.964Z,1.20
2022-10-11T16:45:46.528Z,1.77
2022-10-11T16:48:13.196Z,1.92
2022-10-11T16:50:41.095Z,2.00
2022-10-11T16:53:07.805Z,2.30
2022-10-11T16:55:34.903Z,2.60
2022-10-11T16:58:01.702Z,2.30
2022-10-11T17:00:29.009Z,3.15
2022-10-11T17:02:56.888Z,3.13
2022-10-11T17:05:23.530Z,3.05
2022-10-11T17:07:50.215Z,3.70
2022-10-11T17:10:16.922Z,4.07
2022-10-11T17:12:50.154Z,3.45
2022-10-11T17:15:17.181Z,3.30
2022-10-11T17:17:43.975Z,3.70
2022-10-11T17:20:11.427Z,3.50
2022-10-11T17:22:41.223Z,3.85
2022-10-11T17:25:08.345Z,3.63
2022-10-11T17:27:35.053Z,3.30
2022-10-11T17:30:02.762Z,3.88
2022-10-11T17:32:29.583Z,4.15
2022-10-11T17:35:02.011Z,3.83
2022-10-11T17:37:28.703Z,4.20
2022-10-11T17:39:55.516Z,4.78
2022-10-11T17:42:22.121Z,3.95
2022-10-11T17:44:48.913Z,4.82
2022-10-11T17:47:15.940Z,4.20
2022-10-11T17:49:43.142Z,4.70
2022-10-11T17:52:10.403Z,4.38
2022-10-11T17:54:37.528Z,4.30
2022-10-11T17:57:08.669Z,5.10
2022-10-11T17:59:35.873Z,6.72
2022-10-11T18:02:02.639Z,6.80
2022-10-11T18:04:30.271Z,6.55
2022-10-11T18:06:56.967Z,5.50
2022-10-11T18:09:24.790Z,5.97
2022-10-11T18:11:53.018Z,5.45
2022-10-11T18:14:20.133Z,5.78
2022-10-11T18:16:46.852Z,6.35
2022-10-11T18:19:14.191Z,6.65
2022-10-11T18:21:41.471Z,5.72
2022-10-11T18:24:12.166Z,5.28
2022-10-11T18:26:39.516Z,5.20
2022-10-11T18:29:06.280Z,5.60
2022-10-11T18:31:35.040Z,5.60
2022-10-11T18:34:04.549Z,5.43
2022-10-11T18:36:32.159Z,4.95
2022-10-11T18:39:03.795Z,5.72
2022-10-11T18:41:32.320Z,5.53
2022-10-11T18:44:01.388Z,5.60
2022-10-11T18:46:28.663Z,6.15
2022-10-11T18:48:56.536Z,5.55
2022-10-11T18:51:26.125Z,6.60
2022-10-11T18:53:53.696Z,8.32
2022-10-11T18:56:21.780Z,8.43
2022-10-11T18:58:51.717Z,8.50
2022-10-11T19:01:27.098Z,13.60
2022-10-11T19:03:58.292Z,12.32
2022-10-11T19:06:28.099Z,11.82
2022-10-11T19:08:59.411Z,10.82
2022-10-11T19:11:38.018Z,10.10
2022-10-11T19:14:14.663Z,9.93
2022-10-11T19:16:51.064Z,7.78
2022-10-11T19:19:19.413Z,8.35
2022-10-11T19:21:48.766Z,8.95
2022-10-11T19:24:16.981Z,9.20
2022-10-11T19:26:45.363Z,8.48
2022-10-11T19:29:14.908Z,8.85
2022-10-11T19:31:57.100Z,9.23
2022-10-11T19:34:28.350Z,8.18
2022-10-11T19:36:56.751Z,8.77
2022-10-11T19:39:25.558Z,9.48
2022-10-11T19:41:53.154Z,8.68
2022-10-11T19:44:21.759Z,8.60
2022-10-11T19:46:52.764Z,8.98
2022-10-11T19:49:23.863Z,7.63
2022-10-11T19:51:50.959Z,8.27
2022-10-11T19:54:21.249Z,8.93
2022-10-11T19:56:48.109Z,7.70
2022-10-11T19:59:14.928Z,8.18
2022-10-11T20:01:49.590Z,7.85
2022-10-11T20:04:46.989Z,8.20
2022-10-11T20:07:06.312Z,7.88
2022-10-11T20:09:33.114Z,7.47
2022-10-11T20:11:59.797Z,8.40
2022-10-11T20:14:26.787Z,8.23
2022-10-11T20:16:53.812Z,8.23
2022-10-11T20:19:23.859Z,8.00
2022-10-11T20:21:58.489Z,8.48
2022-10-11T20:24:27.455Z,9.02
2022-10-11T20:26:54.646Z,8.98
2022-10-11T20:29:21.463Z,9.98
2022-10-11T20:31:49.466Z,9.05
2022-10-11T20:34:16.121Z,10.63
2022-10-11T20:36:49.130Z,8.80
2022-10-11T20:39:19.025Z,10.30
2022-10-11T20:41:46.180Z,11.23
2022-10-11T20:44:17.634Z,10.55
2022-10-11T20:46:44.442Z,11.05
2022-10-11T20:49:13.917Z,10.82
2022-10-11T20:51:42.024Z,10.68
2022-10-11T20:54:09.267Z,10.85
2022-10-11T20:56:36.552Z,10.68
2022-10-11T20:59:04.043Z,9.55
2022-10-11T21:01:40.824Z,10.15
2022-10-11T21:04:10.743Z,9.80
2022-10-11T21:06:37.422Z,10.73
2022-10-11T21:09:04.396Z,9.75
2022-10-11T21:11:33.581Z,9.20
2022-10-11T21:14:03.282Z,10.20
2022-10-11T21:16:32.487Z,11.25
2022-10-11T21:19:00.195Z,10.60
2022-10-11T21:25:49.009Z,9.52
2022-10-11T21:28:15.689Z,10.15
2022-10-11T21:30:42.341Z,9.68
2022-10-11T21:33:08.967Z,9.18
2022-10-11T21:35:39.276Z,10.55
2022-10-11T21:38:05.855Z,10.15
2022-10-11T21:40:33.082Z,10.55
2022-10-11T21:42:59.667Z,9.45
2022-10-11T21:45:26.223Z,10.48
2022-10-11T21:47:52.965Z,9.88
2022-10-11T21:50:19.714Z,9.43
2022-10-11T21:52:46.341Z,10.10
2022-10-11T21:55:13.052Z,10.23
2022-10-11T21:57:42.741Z,10.30
2022-10-11T22:00:10.259Z,10.07
2022-10-11T22:02:39.874Z,9.00
2022-10-11T22:05:06.459Z,9.63
2022-10-11T22:07:33.094Z,10.27
2022-10-11T22:09:59.669Z,9.50
2022-10-11T22:12:26.297Z,8.98
2022-10-11T22:14:52.826Z,9.95
2022-10-11T22:17:19.425Z,8.60
2022-10-11T22:19:46.070Z,9.68
2022-10-11T22:22:12.880Z,8.82
2022-10-11T22:24:39.559Z,8.40
2022-10-11T22:27:06.104Z,8.43
2022-10-11T22:29:34.294Z,9.55
2022-10-11T22:32:01.076Z,8.50
2022-10-11T22:34:31.216Z,8.13
2022-10-11T22:36:57.769Z,7.43
2022-10-11T22:39:24.348Z,8.00
2022-10-11T22:41:50.925Z,8.07
2022-10-11T22:44:17.547Z,8.52
2022-10-11T22:46:44.176Z,7.97
2022-10-11T22:49:10.773Z,8.43
2022-10-11T22:51:37.374Z,8.00
2022-10-11T22:54:04.315Z,7.88
2022-10-11T22:56:32.219Z,8.02
2022-10-11T22:58:58.918Z,7.93
2022-10-11T23:01:25.492Z,9.55
2022-10-11T23:03:52.219Z,7.68
2022-10-11T23:06:18.968Z,8.38
2022-10-11T23:08:45.679Z,8.07
2022-10-11T23:11:12.607Z,7.53
2022-10-11T23:13:39.324Z,8.02
2022-10-11T23:16:07.800Z,8.30
2022-10-11T23:18:34.616Z,7.57
2022-10-11T23:21:01.500Z,7.32
2022-10-11T23:23:28.312Z,7.88
2022-10-11T23:26:06.257Z,7.57
2022-10-11T23:28:35.789Z,7.32
2022-10-11T23:31:07.362Z,6.35
2022-10-11T23:33:34.480Z,6.80
2022-10-11T23:36:01.341Z,7.07
2022-10-11T23:38:28.217Z,6.93
2022-10-11T23:40:54.840Z,7.53
2022-10-11T23:43:21.535Z,7.75
2022-10-11T23:45:48.271Z,8.18
2022-10-11T23:48:14.888Z,8.20
2022-10-11T23:50:42.459Z,7.60
2022-10-11T23:53:09.095Z,7.85
2022-10-11T23:55:36.573Z,7.97
2022-10-11T23:58:03.132Z,8.18
